createdAt,value
2022-07-26T00:01:21.306Z,21.60
2022-07-26T00:03:51.713Z,21.60
2022-07-26T00:06:23.338Z,21.80
2022-07-26T00:08:53.037Z,21.70
2022-07-26T00:11:23.897Z,21.60
2022-07-26T00:13:53.592Z,21.60
2022-07-26T00:16:23.146Z,21.60
2022-07-26T00:18:53.325Z,21.70
2022-07-26T00:21:24.618Z,21.70
2022-07-26T00:23:54.974Z,21.70
2022-07-26T00:26:24.474Z,21.80
2022-07-26T00:28:53.900Z,21.90
2022-07-26T00:31:24.319Z,21.90
2022-07-26T00:33:54.498Z,22.00
2022-07-26T00:36:25.714Z,22.00
2022-07-26T00:38:55.848Z,22.00
2022-07-26T00:41:25.456Z,22.00
2022-07-26T00:43:59.746Z,21.90
2022-07-26T00:46:30.189Z,22.00
2022-07-26T00:48:59.976Z,22.00
2022-07-26T00:51:31.632Z,21.80
2022-07-26T00:54:01.020Z,21.80
2022-07-26T00:56:33.884Z,21.90
2022-07-26T00:59:03.909Z,21.90
2022-07-26T01:01:34.032Z,21.90
2022-07-26T01:04:03.917Z,22.00
2022-07-26T01:06:35.073Z,21.80
2022-07-26T01:09:06.897Z,21.80
2022-07-26T01:11:36.537Z,21.60
2022-07-26T01:14:06.688Z,21.50
2022-07-26T01:16:36.440Z,21.50
2022-07-26T01:19:06.145Z,21.50
2022-07-26T01:21:37.816Z,21.50
2022-07-26T01:24:08.477Z,21.40
2022-07-26T01:26:38.984Z,21.40
2022-07-26T01:29:09.157Z,21.50
2022-07-26T01:31:39.347Z,21.50
2022-07-26T01:34:09.174Z,21.50
2022-07-26T01:36:41.601Z,21.50
2022-07-26T01:39:11.941Z,21.50
2022-07-26T01:41:41.781Z,21.40
2022-07-26T01:44:11.692Z,21.40
2022-07-26T01:46:42.576Z,21.30
2022-07-26T01:49:12.161Z,21.40
2022-07-26T01:51:43.852Z,21.30
2022-07-26T01:54:14.385Z,21.30
2022-07-26T01:56:45.119Z,21.20
2022-07-26T01:59:15.380Z,21.20
2022-07-26T02:01:45.273Z,21.20
2022-07-26T02:04:45.830Z,21.30
2022-07-26T02:07:17.696Z,21.30
2022-07-26T02:09:47.741Z,21.40
2022-07-26T02:12:19.015Z,21.40
2022-07-26T02:14:48.478Z,21.40
2022-07-26T02:17:19.069Z,21.40
2022-07-26T02:19:49.036Z,21.30
2022-07-26T02:22:20.655Z,21.20
2022-07-26T02:24:51.789Z,21.10
2022-07-26T02:27:21.925Z,21.10
2022-07-26T02:29:52.029Z,21.10
2022-07-26T02:32:21.778Z,21.20
2022-07-26T02:34:51.516Z,21.20
2022-07-26T02:37:23.374Z,21.20
2022-07-26T02:39:53.051Z,21.20
2022-07-26T02:42:23.063Z,21.30
2022-07-26T02:44:53.803Z,21.30
2022-07-26T02:47:23.444Z,21.30
2022-07-26T02:49:53.770Z,21.30
2022-07-26T02:52:24.708Z,21.30
2022-07-26T02:54:54.676Z,21.30
2022-07-26T02:57:24.031Z,21.20
2022-07-26T02:59:53.649Z,21.10
2022-07-26T03:02:23.712Z,21.20
2022-07-26T03:04:53.065Z,21.30
2022-07-26T03:07:24.122Z,21.40
2022-07-26T03:09:54.511Z,21.50
2022-07-26T03:12:24.026Z,21.60
2022-07-26T03:14:53.474Z,21.70
2022-07-26T03:17:24.022Z,21.70
2022-07-26T03:19:53.845Z,21.70
2022-07-26T03:22:24.883Z,21.80
2022-07-26T03:24:54.553Z,21.80
2022-07-26T03:27:24.183Z,21.80
2022-07-26T03:29:54.328Z,21.60
2022-07-26T03:32:24.075Z,21.40
2022-07-26T03:34:53.649Z,21.30
2022-07-26T03:37:25.519Z,21.20
2022-07-26T03:40:16.055Z,21.20
2022-07-26T03:42:46.435Z,21.00
2022-07-26T03:45:16.878Z,20.90
2022-07-26T03:47:47.337Z,20.70
2022-07-26T03:50:17.047Z,20.50
2022-07-26T03:52:48.455Z,20.30
2022-07-26T03:55:36.116Z,20.00
2022-07-26T03:58:05.862Z,19.80
2022-07-26T04:00:36.021Z,19.60
2022-07-26T04:03:05.937Z,19.50
2022-07-26T04:05:36.200Z,19.40
2022-07-26T04:08:08.262Z,19.30
2022-07-26T04:10:37.643Z,19.20
2022-07-26T04:13:07.695Z,19.10
2022-07-26T04:15:37.178Z,19.10
2022-07-26T04:18:07.104Z,19.20
2022-07-26T04:20:37.371Z,19.20
2022-07-26T04:23:11.611Z,19.20
2022-07-26T04:25:42.944Z,19.30
2022-07-26T04:28:12.789Z,19.40
2022-07-26T04:30:42.965Z,19.50
2022-07-26T04:33:12.746Z,19.50
2022-07-26T04:35:42.081Z,19.50
2022-07-26T04:38:13.145Z,19.60
2022-07-26T04:40:43.455Z,19.60
2022-07-26T04:43:15.737Z,19.70
2022-07-26T04:45:46.968Z,19.70
2022-07-26T04:48:17.012Z,19.70
2022-07-26T04:50:47.081Z,19.70
2022-07-26T04:53:18.309Z,19.70
2022-07-26T04:55:48.802Z,19.80
2022-07-26T04:58:19.227Z,19.70
2022-07-26T05:01:09.417Z,19.80
2022-07-26T05:03:39.771Z,19.70
2022-07-26T05:06:10.081Z,19.60
2022-07-26T05:08:42.662Z,19.50
2022-07-26T05:11:12.720Z,19.40
2022-07-26T05:13:42.461Z,19.40
2022-07-26T05:16:12.271Z,19.40
2022-07-26T05:18:45.728Z,19.40
2022-07-26T05:21:19.345Z,19.30
2022-07-26T05:23:51.154Z,19.20
2022-07-26T05:26:20.702Z,19.10
2022-07-26T05:28:50.963Z,19.10
2022-07-26T05:31:20.625Z,19.10
2022-07-26T05:33:49.993Z,19.10
2022-07-26T05:36:20.418Z,19.00
2022-07-26T05:38:51.218Z,18.90
2022-07-26T05:41:21.426Z,18.90
2022-07-26T05:43:50.801Z,18.90
2022-07-26T05:46:20.339Z,18.90
2022-07-26T05:48:50.626Z,18.80
2022-07-26T05:51:20.016Z,18.80
2022-07-26T05:53:53.731Z,18.80
2022-07-26T05:56:23.434Z,18.80
2022-07-26T05:58:53.353Z,18.80
2022-07-26T06:01:23.288Z,18.90
2022-07-26T06:03:54.375Z,18.80
2022-07-26T06:06:24.159Z,18.80
2022-07-26T06:08:55.886Z,18.80
2022-07-26T06:11:26.046Z,18.80
2022-07-26T06:13:56.734Z,18.60
2022-07-26T06:16:26.524Z,18.50
2022-07-26T06:18:56.737Z,18.40
2022-07-26T06:21:26.460Z,18.40
2022-07-26T06:23:57.521Z,18.30
2022-07-26T06:26:27.857Z,18.30
2022-07-26T06:29:15.458Z,18.30
2022-07-26T06:31:45.512Z,18.40
2022-07-26T06:34:15.888Z,18.40
2022-07-26T06:36:46.581Z,18.40
2022-07-26T06:39:17.666Z,18.40
2022-07-26T06:41:48.081Z,18.50
2022-07-26T06:44:17.543Z,18.50
2022-07-26T06:46:47.163Z,18.50
2022-07-26T06:49:21.851Z,18.50
2022-07-26T06:51:51.995Z,18.50
2022-07-26T06:54:23.729Z,18.60
2022-07-26T06:56:53.392Z,18.60
2022-07-26T06:59:23.287Z,18.60
2022-07-26T07:02:00.191Z,18.60
2022-07-26T07:04:31.169Z,18.50
2022-07-26T07:07:06.211Z,18.60
2022-07-26T07:09:39.009Z,18.70
2022-07-26T07:12:10.719Z,18.60
2022-07-26T07:14:41.282Z,18.70
2022-07-26T07:17:15.005Z,18.60
2022-07-26T07:19:48.988Z,18.70
2022-07-26T07:22:18.710Z,18.60
2022-07-26T07:24:49.655Z,18.60
2022-07-26T07:27:20.014Z,18.50
2022-07-26T07:29:50.663Z,18.50
2022-07-26T07:32:20.786Z,18.50
2022-07-26T07:34:51.244Z,18.50
2022-07-26T07:37:21.653Z,18.60
2022-07-26T07:39:52.926Z,18.60
2022-07-26T07:42:24.355Z,18.60
2022-07-26T07:44:54.083Z,18.70
2022-07-26T07:47:23.834Z,18.70
2022-07-26T07:49:54.046Z,18.90
2022-07-26T07:52:23.385Z,19.00
2022-07-26T07:55:11.690Z,19.10
2022-07-26T07:57:44.315Z,19.20
2022-07-26T08:00:19.631Z,19.30
2022-07-26T08:02:57.592Z,19.40
2022-07-26T08:05:27.114Z,19.40
2022-07-26T08:07:57.039Z,19.60
2022-07-26T08:10:28.450Z,19.70
2022-07-26T08:12:57.752Z,19.70
2022-07-26T08:15:27.845Z,19.80
2022-07-26T08:17:57.535Z,19.70
2022-07-26T08:20:28.126Z,19.90
2022-07-26T08:22:57.883Z,19.90
2022-07-26T08:25:29.741Z,19.90
2022-07-26T08:28:09.313Z,20.00
2022-07-26T08:30:49.380Z,20.00
2022-07-26T08:33:18.757Z,20.00
2022-07-26T08:35:48.426Z,19.90
2022-07-26T08:38:18.471Z,19.80
2022-07-26T08:40:49.394Z,19.80
2022-07-26T08:43:19.528Z,19.90
2022-07-26T08:45:49.596Z,19.90
2022-07-26T08:48:19.187Z,20.00
2022-07-26T08:50:50.500Z,20.20
2022-07-26T08:53:20.110Z,20.20
2022-07-26T08:56:06.318Z,20.20
2022-07-26T08:58:37.553Z,20.40
2022-07-26T09:01:09.901Z,20.30
2022-07-26T09:03:39.598Z,20.50
2022-07-26T09:06:18.549Z,20.50
2022-07-26T09:08:49.550Z,20.70
2022-07-26T09:11:34.767Z,20.80
2022-07-26T09:14:05.653Z,21.10
2022-07-26T09:16:39.656Z,21.20
2022-07-26T09:19:22.892Z,21.50
2022-07-26T09:21:55.668Z,21.60
2022-07-26T09:24:35.761Z,21.90
2022-07-26T09:27:11.457Z,21.90
2022-07-26T09:29:48.720Z,22.10
2022-07-26T09:32:21.433Z,22.00
2022-07-26T09:34:53.628Z,21.70
2022-07-26T09:37:36.121Z,21.70
2022-07-26T09:40:09.680Z,21.70
2022-07-26T09:42:54.930Z,21.70
2022-07-26T09:45:24.384Z,21.70
2022-07-26T09:47:54.763Z,21.70
2022-07-26T09:50:25.825Z,21.80
2022-07-26T09:53:07.681Z,22.00
2022-07-26T09:55:44.547Z,22.10
2022-07-26T09:58:19.641Z,22.20
2022-07-26T10:00:49.251Z,22.20
2022-07-26T10:03:19.312Z,22.20
2022-07-26T10:05:48.843Z,22.20
2022-07-26T10:08:20.391Z,22.20
2022-07-26T10:10:56.057Z,22.20
2022-07-26T10:13:30.919Z,22.30
2022-07-26T10:16:00.624Z,22.40
2022-07-26T10:18:50.954Z,22.50
2022-07-26T10:21:23.576Z,22.70
2022-07-26T10:23:54.218Z,22.80
2022-07-26T10:26:43.095Z,22.70
2022-07-26T10:29:29.319Z,22.90
2022-07-26T10:32:20.823Z,23.00
2022-07-26T10:34:49.876Z,23.10
2022-07-26T10:37:30.962Z,23.30
2022-07-26T10:40:20.236Z,23.40
2022-07-26T10:42:51.089Z,23.60
2022-07-26T10:45:25.866Z,23.50
2022-07-26T10:48:16.195Z,23.10
2022-07-26T10:50:47.436Z,23.30
2022-07-26T10:53:22.317Z,23.60
2022-07-26T10:55:53.623Z,23.90
2022-07-26T10:58:25.095Z,23.90
2022-07-26T11:01:00.878Z,23.70
2022-07-26T11:03:40.802Z,23.80
2022-07-26T11:06:15.708Z,24.30
2022-07-26T11:08:48.482Z,24.30
2022-07-26T11:11:31.160Z,23.90
2022-07-26T11:14:09.634Z,23.60
2022-07-26T11:16:42.968Z,23.20
2022-07-26T11:19:17.852Z,23.30
2022-07-26T11:21:49.698Z,23.00
2022-07-26T11:24:19.994Z,23.20
2022-07-26T11:26:49.910Z,23.90
2022-07-26T11:29:35.142Z,24.90
2022-07-26T11:32:19.534Z,25.40
2022-07-26T11:35:01.338Z,24.90
2022-07-26T11:37:31.014Z,25.00
2022-07-26T11:40:01.275Z,25.60
2022-07-26T11:42:31.042Z,25.60
2022-07-26T11:45:00.466Z,25.70
2022-07-26T11:47:32.658Z,25.50
2022-07-26T11:50:21.853Z,25.50
2022-07-26T11:52:52.739Z,25.90
2022-07-26T11:55:28.898Z,25.90
2022-07-26T11:58:05.557Z,25.80
2022-07-26T12:00:34.945Z,26.00
2022-07-26T12:03:06.354Z,26.20
2022-07-26T12:05:35.897Z,26.10
2022-07-26T12:08:08.755Z,26.10
2022-07-26T12:10:38.111Z,26.00
2022-07-26T12:13:14.101Z,26.10
2022-07-26T12:15:48.752Z,26.40
2022-07-26T12:18:28.615Z,26.50
2022-07-26T12:21:06.307Z,26.00
2022-07-26T12:23:48.982Z,26.30
2022-07-26T12:26:23.778Z,26.60
2022-07-26T12:28:54.362Z,26.80
2022-07-26T12:31:28.183Z,26.80
2022-07-26T12:34:00.505Z,26.10
2022-07-26T12:36:30.460Z,25.90
2022-07-26T12:39:02.028Z,25.90
2022-07-26T12:41:35.782Z,26.10
2022-07-26T12:44:06.730Z,25.80
2022-07-26T12:46:37.486Z,25.40
2022-07-26T12:49:09.359Z,24.80
2022-07-26T12:51:39.147Z,24.50
2022-07-26T12:54:09.778Z,24.30
2022-07-26T12:56:39.177Z,24.00
2022-07-26T12:59:08.979Z,23.60
2022-07-26T13:01:38.917Z,23.60
2022-07-26T13:04:10.697Z,24.10
2022-07-26T13:06:41.624Z,24.70
2022-07-26T13:09:11.520Z,25.40
2022-07-26T13:11:41.438Z,26.30
2022-07-26T13:14:12.080Z,27.40
2022-07-26T13:16:43.642Z,27.90
2022-07-26T13:19:15.341Z,27.90
2022-07-26T13:21:47.997Z,27.10
2022-07-26T13:24:22.670Z,26.90
2022-07-26T13:26:51.802Z,26.70
2022-07-26T13:29:22.618Z,26.90
2022-07-26T13:31:52.963Z,26.90
2022-07-26T13:34:24.826Z,26.50
2022-07-26T13:36:55.070Z,26.10
2022-07-26T13:39:24.947Z,25.80
2022-07-26T13:42:01.643Z,25.90
2022-07-26T13:44:31.279Z,25.60
2022-07-26T13:47:00.570Z,25.60
2022-07-26T13:49:32.522Z,25.30
2022-07-26T13:52:02.083Z,24.90
2022-07-26T13:54:34.139Z,24.70
2022-07-26T13:57:05.532Z,24.40
2022-07-26T13:59:35.924Z,24.60
2022-07-26T14:02:06.459Z,24.50
2022-07-26T14:04:38.416Z,24.40
2022-07-26T14:07:08.389Z,24.30
2022-07-26T14:09:38.480Z,24.40
2022-07-26T14:12:08.555Z,24.40
2022-07-26T14:14:38.150Z,24.30
2022-07-26T14:17:08.589Z,24.20
2022-07-26T14:19:39.958Z,24.10
2022-07-26T14:22:10.489Z,24.00
2022-07-26T14:24:39.941Z,24.30
2022-07-26T14:27:09.258Z,24.90
2022-07-26T14:29:40.725Z,25.40
2022-07-26T14:32:10.457Z,25.20
2022-07-26T14:34:42.062Z,25.10
2022-07-26T14:37:41.859Z,25.40
2022-07-26T14:40:02.021Z,25.20
2022-07-26T14:42:32.039Z,24.90
2022-07-26T14:45:01.513Z,25.40
2022-07-26T14:47:31.244Z,25.90
2022-07-26T14:50:06.483Z,26.40
2022-07-26T14:52:38.404Z,26.40
2022-07-26T14:55:09.752Z,26.90
2022-07-26T14:57:40.362Z,26.60
2022-07-26T15:00:14.446Z,26.20
2022-07-26T15:02:45.754Z,26.00
2022-07-26T15:05:19.084Z,26.20
2022-07-26T15:07:48.491Z,25.80
2022-07-26T15:10:18.326Z,25.50
2022-07-26T15:12:48.265Z,24.90
2022-07-26T15:15:17.626Z,24.50
2022-07-26T15:17:47.986Z,24.50
2022-07-26T15:20:19.130Z,24.70
2022-07-26T15:22:49.826Z,24.50
2022-07-26T15:25:19.354Z,24.60
2022-07-26T15:27:49.115Z,25.00
2022-07-26T15:30:19.979Z,24.90
2022-07-26T15:32:50.185Z,25.00
2022-07-26T15:35:21.643Z,25.30
2022-07-26T15:37:51.376Z,25.40
2022-07-26T15:40:21.431Z,25.10
2022-07-26T15:42:53.044Z,24.80
2022-07-26T15:45:25.070Z,24.60
2022-07-26T15:48:00.939Z,24.70
2022-07-26T15:50:39.739Z,24.50
2022-07-26T15:53:09.513Z,24.40
2022-07-26T15:55:39.662Z,24.50
2022-07-26T15:58:09.288Z,24.50
2022-07-26T16:00:38.750Z,24.30
2022-07-26T16:03:09.203Z,24.30
2022-07-26T16:05:40.236Z,24.00
2022-07-26T16:08:10.582Z,23.90
2022-07-26T16:10:40.071Z,23.70
2022-07-26T16:13:09.851Z,23.40
2022-07-26T16:15:39.709Z,23.10
2022-07-26T16:18:09.615Z,23.00
2022-07-26T16:20:40.430Z,23.10
2022-07-26T16:23:10.877Z,23.10
2022-07-26T16:25:40.229Z,23.10
2022-07-26T16:28:09.685Z,22.80
2022-07-26T16:30:39.774Z,22.70
2022-07-26T16:33:09.526Z,22.70
2022-07-26T16:35:40.366Z,22.60
2022-07-26T16:38:10.564Z,22.50
2022-07-26T16:40:40.057Z,22.40
2022-07-26T16:43:11.950Z,22.30
2022-07-26T16:45:42.510Z,22.20
2022-07-26T16:48:12.407Z,22.10
2022-07-26T16:50:43.900Z,22.00
2022-07-26T16:53:14.200Z,21.90
2022-07-26T16:55:45.410Z,21.80
2022-07-26T16:58:15.630Z,21.50
2022-07-26T17:00:45.274Z,21.30
2022-07-26T17:03:18.098Z,21.10
2022-07-26T17:05:49.067Z,20.90
2022-07-26T17:08:19.420Z,20.70
2022-07-26T17:10:49.237Z,20.40
2022-07-26T17:13:18.741Z,20.40
2022-07-26T17:15:49.452Z,20.30
2022-07-26T17:18:18.888Z,20.20
2022-07-26T17:20:50.605Z,20.30
2022-07-26T17:23:20.415Z,20.20
2022-07-26T17:25:50.417Z,20.10
2022-07-26T17:28:19.774Z,20.10
2022-07-26T17:30:49.429Z,20.00
2022-07-26T17:33:19.775Z,20.00
2022-07-26T17:35:50.795Z,20.00
2022-07-26T17:38:21.002Z,20.00
2022-07-26T17:40:52.711Z,20.10
2022-07-26T17:43:23.491Z,20.10
2022-07-26T17:45:53.546Z,20.10
2022-07-26T17:48:22.898Z,20.30
2022-07-26T17:50:54.490Z,20.40
2022-07-26T17:53:34.689Z,20.50
2022-07-26T17:56:05.218Z,20.40
2022-07-26T17:58:34.898Z,20.20
2022-07-26T18:01:05.104Z,19.90
2022-07-26T18:03:35.165Z,19.70
2022-07-26T18:06:06.848Z,19.60
2022-07-26T18:08:37.258Z,19.50
2022-07-26T18:11:08.311Z,19.40
2022-07-26T18:13:39.038Z,19.30
2022-07-26T18:16:08.769Z,19.20
2022-07-26T18:18:38.669Z,19.10
2022-07-26T18:21:10.210Z,19.00
2022-07-26T18:23:49.706Z,19.00
2022-07-26T18:26:30.131Z,18.90
2022-07-26T18:28:59.685Z,18.80
2022-07-26T18:31:29.345Z,18.70
2022-07-26T18:34:04.329Z,18.60
2022-07-26T18:36:37.332Z,18.60
2022-07-26T18:39:08.075Z,18.40
2022-07-26T18:41:37.782Z,18.40
2022-07-26T18:44:07.473Z,18.30
2022-07-26T18:46:38.277Z,18.10
2022-07-26T18:49:08.056Z,18.10
2022-07-26T18:51:40.072Z,18.10
2022-07-26T18:54:09.644Z,18.00
2022-07-26T18:56:39.773Z,17.90
2022-07-26T18:59:10.733Z,17.80
2022-07-26T19:01:42.179Z,17.80
2022-07-26T19:04:11.757Z,17.80
2022-07-26T19:06:44.252Z,17.70
2022-07-26T19:09:14.721Z,17.70
2022-07-26T19:11:46.008Z,17.70
2022-07-26T19:14:16.234Z,17.60
2022-07-26T19:16:45.622Z,17.60
2022-07-26T19:19:15.769Z,17.70
2022-07-26T19:21:49.625Z,17.60
2022-07-26T19:24:19.434Z,17.60
2022-07-26T19:26:49.561Z,17.50
2022-07-26T19:29:19.870Z,17.50
2022-07-26T19:31:50.184Z,17.50
2022-07-26T19:34:19.633Z,17.50
2022-07-26T19:36:51.779Z,17.40
2022-07-26T19:39:21.502Z,17.40
2022-07-26T19:41:50.942Z,17.30
2022-07-26T19:44:20.489Z,17.20
2022-07-26T19:46:55.534Z,17.20
2022-07-26T19:49:26.924Z,17.20
2022-07-26T19:51:58.471Z,17.10
2022-07-26T19:54:28.616Z,17.10
2022-07-26T19:56:58.753Z,17.10
2022-07-26T19:59:28.161Z,17.00
2022-07-26T20:01:58.371Z,16.90
2022-07-26T20:04:28.736Z,16.90
2022-07-26T20:07:00.139Z,16.80
2022-07-26T20:09:30.698Z,16.80
2022-07-26T20:12:01.283Z,16.80
2022-07-26T20:14:32.448Z,16.70
2022-07-26T20:17:01.849Z,16.70
2022-07-26T20:19:32.084Z,16.70
2022-07-26T20:22:05.896Z,16.60
2022-07-26T20:24:38.314Z,16.60
2022-07-26T20:27:08.225Z,16.60
2022-07-26T20:29:38.338Z,16.60
2022-07-26T20:32:08.443Z,16.50
2022-07-26T20:34:38.836Z,16.50
2022-07-26T20:37:10.663Z,16.40
2022-07-26T20:39:40.134Z,16.40
2022-07-26T20:42:12.969Z,16.40
2022-07-26T20:44:49.332Z,16.40
2022-07-26T20:47:19.493Z,16.30
2022-07-26T20:49:49.167Z,16.30
2022-07-26T20:52:20.216Z,16.20
2022-07-26T20:54:50.528Z,16.20
2022-07-26T20:57:22.671Z,16.20
2022-07-26T20:59:52.398Z,16.20
2022-07-26T21:02:21.888Z,16.10
2022-07-26T21:04:51.558Z,16.10
2022-07-26T21:07:23.012Z,16.10
2022-07-26T21:09:52.638Z,16.00
2022-07-26T21:12:23.366Z,16.00
2022-07-26T21:14:53.411Z,16.00
2022-07-26T21:17:23.275Z,16.00
2022-07-26T21:20:04.523Z,16.00
2022-07-26T21:22:36.570Z,15.90
2022-07-26T21:25:06.698Z,15.80
2022-07-26T21:27:36.378Z,15.80
2022-07-26T21:30:06.734Z,15.70
2022-07-26T21:32:36.425Z,15.70
2022-07-26T21:35:07.728Z,15.70
2022-07-26T21:37:38.762Z,15.70
2022-07-26T21:40:10.108Z,15.70
2022-07-26T21:42:39.986Z,15.70
2022-07-26T21:45:10.454Z,15.70
2022-07-26T21:47:39.854Z,15.70
2022-07-26T21:50:10.842Z,15.70
2022-07-26T21:52:42.339Z,15.60
2022-07-26T21:55:17.953Z,15.50
2022-07-26T21:57:49.456Z,15.50
2022-07-26T22:00:19.586Z,15.50
2022-07-26T22:02:49.310Z,15.50
2022-07-26T22:05:38.309Z,15.50
2022-07-26T22:08:11.472Z,15.40
2022-07-26T22:10:44.616Z,15.30
2022-07-26T22:13:15.755Z,15.40
2022-07-26T22:15:45.642Z,15.30
2022-07-26T22:18:15.883Z,15.20
2022-07-26T22:20:47.744Z,15.20
2022-07-26T22:23:20.596Z,15.10
2022-07-26T22:25:51.184Z,15.10
2022-07-26T22:28:20.644Z,14.90
2022-07-26T22:30:49.966Z,14.80
2022-07-26T22:33:20.354Z,14.80
2022-07-26T22:35:49.908Z,14.80
2022-07-26T22:38:20.955Z,14.70
2022-07-26T22:40:50.936Z,14.70
2022-07-26T22:43:20.334Z,14.60
2022-07-26T22:45:49.848Z,14.60
2022-07-26T22:48:19.878Z,14.50
2022-07-26T22:50:49.277Z,14.50
2022-07-26T22:53:20.183Z,14.40
2022-07-26T22:56:19.549Z,14.30
2022-07-26T22:58:49.329Z,14.20
2022-07-26T23:01:19.618Z,14.30
2022-07-26T23:03:49.641Z,14.30
2022-07-26T23:06:31.381Z,14.20
2022-07-26T23:09:03.565Z,14.10
2022-07-26T23:11:33.778Z,14.10
2022-07-26T23:14:03.230Z,14.10
2022-07-26T23:16:32.978Z,14.00
2022-07-26T23:19:03.559Z,14.00
2022-07-26T23:21:33.431Z,14.00
2022-07-26T23:24:04.806Z,13.90
2022-07-26T23:26:35.295Z,13.90
2022-07-26T23:29:05.135Z,13.80
2022-07-26T23:31:35.450Z,13.80
2022-07-26T23:34:05.162Z,13.80
2022-07-26T23:36:35.135Z,13.70
2022-07-26T23:39:07.199Z,13.70
2022-07-26T23:41:37.637Z,13.80
2022-07-26T23:44:08.005Z,13.70
2022-07-26T23:46:38.623Z,13.70
2022-07-26T23:49:09.476Z,13.70
2022-07-26T23:51:40.071Z,13.80
2022-07-26T23:54:11.936Z,13.70
2022-07-26T23:56:41.527Z,13.70
2022-07-26T23:59:12.229Z,13.70
